La Porte, California
Current Conditions -  °F | °C
As of 12:46 AM on Tuesday 21 Oct 2014 (Local Time) from KBLU Reporting Station
Haze Haze  
Wind Chill: 34°   Ceiling: 400
Heat Index: 39°   Visibility: 1.7mi
Dew Point: 37°   Wind: 8mph
Humidity: 93%   Direction: 170°S
Pressure: 30.09"   Gusts: NA
Location:  39.6938°N, 121.001°W
Report Text: KBLU 210746Z AUTO 17007KT 1 3/4SM BR BKN004 OVC010 04/03 A3009 RMK AO2
Loading
Personal Weather Stations






























Interactive Weather Map
Tropical Storm Tracking
New forecast layout! Learn more

10-Day Weather Forecast

Advertisements
Track Severe Weather on mobile